Collins, Ohio
Current Conditions -  °F | °C
As of 4:53 AM on Wednesday 22 Oct 2014 (Local Time) from KLPR Reporting Station
Overcast Overcast  
Wind Chill: 44°   Ceiling: 1600
Heat Index: 48°   Visibility: 10mi
Dew Point: 44°   Wind: 8mph
Humidity: 86%   Direction: 30°NNE
Pressure: 30.17"   Gusts: NA
Location:  41.26°N, 82.49°W
Report Text: KLPR 220853Z AUTO 03007KT 10SM OVC016 09/07 A3017 RMK AO2 SLP218 T00890067 53010 TSNO
Loading
Personal Weather Stations






























Interactive Weather Map
Tropical Storm Tracking
New forecast layout! Learn more

10-Day Weather Forecast

Advertisements
Track Severe Weather on mobile